createdAt,value
2019-03-29T00:01:32.428Z,16.00
2019-03-29T00:04:19.964Z,16.20
2019-03-29T00:07:08.255Z,17.50
2019-03-29T00:09:56.592Z,19.00
2019-03-29T00:12:44.967Z,18.93
2019-03-29T00:15:33.950Z,18.10
2019-03-29T00:18:22.149Z,24.00
2019-03-29T00:21:10.279Z,20.50
2019-03-29T00:24:06.614Z,15.47
2019-03-29T00:26:48.377Z,18.00
2019-03-29T00:29:36.486Z,16.03
2019-03-29T00:32:24.294Z,19.00
2019-03-29T00:35:12.179Z,18.70
2019-03-29T00:38:00.362Z,23.40
2019-03-29T00:40:48.358Z,19.63
2019-03-29T00:43:36.070Z,19.23
2019-03-29T00:46:24.430Z,17.87
2019-03-29T00:49:12.807Z,21.50
2019-03-29T00:52:00.805Z,21.03
2019-03-29T00:54:48.669Z,20.40
2019-03-29T00:57:37.334Z,21.87
2019-03-29T01:00:25.837Z,22.33
2019-03-29T01:03:14.175Z,21.73
2019-03-29T01:06:02.144Z,22.70
2019-03-29T01:08:50.129Z,20.20
2019-03-29T01:11:38.189Z,22.23
2019-03-29T01:14:26.688Z,23.00
2019-03-29T01:17:14.982Z,19.90
2019-03-29T01:20:03.210Z,21.03
2019-03-29T01:22:51.073Z,23.70
2019-03-29T01:25:39.426Z,22.90
2019-03-29T01:28:27.207Z,21.43
2019-03-29T01:31:15.171Z,23.17
2019-03-29T01:34:03.094Z,25.40
2019-03-29T01:36:51.320Z,22.00
2019-03-29T01:39:39.356Z,23.90
2019-03-29T01:42:27.309Z,22.03
2019-03-29T01:45:15.551Z,25.30
2019-03-29T01:48:03.735Z,22.70
2019-03-29T01:50:51.953Z,25.13
2019-03-29T01:53:39.938Z,21.73
2019-03-29T01:56:27.998Z,21.77
2019-03-29T01:59:16.974Z,23.97
2019-03-29T02:02:05.127Z,22.70
2019-03-29T02:04:53.195Z,23.47
2019-03-29T02:07:40.987Z,22.83
2019-03-29T02:10:29.031Z,25.27
2019-03-29T02:13:16.883Z,22.07
2019-03-29T02:16:04.829Z,25.70
2019-03-29T02:18:52.745Z,23.67
2019-03-29T02:21:41.099Z,26.37
2019-03-29T02:24:28.948Z,23.77
2019-03-29T02:27:17.135Z,24.50
2019-03-29T02:30:05.692Z,24.30
2019-03-29T02:32:53.371Z,24.07
2019-03-29T02:35:41.840Z,25.80
2019-03-29T02:38:30.333Z,23.87
2019-03-29T02:41:19.243Z,23.23
2019-03-29T02:44:07.932Z,24.87
2019-03-29T02:46:56.368Z,29.23
2019-03-29T02:49:44.656Z,22.83
2019-03-29T02:52:32.604Z,28.57
2019-03-29T02:55:20.584Z,25.47
2019-03-29T02:58:08.584Z,23.23
2019-03-29T03:00:56.793Z,24.70
2019-03-29T03:03:45.253Z,25.30
2019-03-29T03:06:32.999Z,23.00
2019-03-29T03:09:21.246Z,26.07
2019-03-29T03:12:09.408Z,24.37
2019-03-29T03:14:57.630Z,28.20
2019-03-29T03:17:45.612Z,25.87
2019-03-29T03:20:33.629Z,23.13
2019-03-29T03:23:21.767Z,26.43
2019-03-29T03:26:10.129Z,28.93
2019-03-29T03:28:58.242Z,25.33
2019-03-29T03:31:46.538Z,26.27
2019-03-29T03:34:34.862Z,27.47
2019-03-29T03:37:23.132Z,27.60
2019-03-29T03:40:11.375Z,28.23
2019-03-29T03:42:59.608Z,26.57
2019-03-29T03:45:47.552Z,26.80
2019-03-29T03:48:35.382Z,27.77
2019-03-29T03:51:23.392Z,29.57
2019-03-29T03:54:11.765Z,28.50
2019-03-29T03:57:00.452Z,29.37
2019-03-29T03:59:49.780Z,28.00
2019-03-29T04:02:37.788Z,26.03
2019-03-29T04:05:25.695Z,28.57
2019-03-29T04:08:13.705Z,28.80
2019-03-29T04:11:01.863Z,27.50
2019-03-29T04:13:49.863Z,25.47
2019-03-29T04:16:37.996Z,31.77
2019-03-29T04:19:26.067Z,27.50
2019-03-29T04:22:14.109Z,30.50
2019-03-29T04:25:01.768Z,30.20
2019-03-29T04:27:49.410Z,26.57
2019-03-29T04:30:37.248Z,29.10
2019-03-29T04:33:25.234Z,33.80
2019-03-29T04:36:12.834Z,29.53
2019-03-29T04:39:00.381Z,32.07
2019-03-29T04:41:48.337Z,27.43
2019-03-29T04:44:36.444Z,30.13
2019-03-29T04:47:24.635Z,28.70
2019-03-29T04:50:12.712Z,30.37
2019-03-29T04:53:00.826Z,26.40
2019-03-29T04:55:49.044Z,28.17
2019-03-29T04:58:37.577Z,31.97
2019-03-29T05:01:25.835Z,31.60
2019-03-29T05:04:13.731Z,31.10
2019-03-29T05:07:01.925Z,35.17
2019-03-29T05:09:49.993Z,28.80
2019-03-29T05:12:38.303Z,29.27
2019-03-29T05:15:26.475Z,29.00
2019-03-29T05:18:14.307Z,33.07
2019-03-29T05:21:02.549Z,33.97
2019-03-29T05:23:51.193Z,28.37
2019-03-29T05:26:39.227Z,29.23
2019-03-29T05:29:27.281Z,28.97
2019-03-29T05:32:15.366Z,29.67
2019-03-29T05:35:03.615Z,30.10
2019-03-29T05:37:51.570Z,31.43
2019-03-29T05:40:39.357Z,33.37
2019-03-29T05:43:27.448Z,31.53
2019-03-29T05:46:15.370Z,29.33
2019-03-29T05:49:03.489Z,30.23
2019-03-29T05:51:52.215Z,29.37
2019-03-29T05:54:40.595Z,24.70
2019-03-29T05:57:28.518Z,24.80
2019-03-29T06:00:19.310Z,25.20
2019-03-29T06:03:09.997Z,23.13
2019-03-29T06:05:57.108Z,22.97
2019-03-29T06:08:45.312Z,26.57
2019-03-29T06:11:33.612Z,23.33
2019-03-29T06:14:21.900Z,24.33
2019-03-29T06:17:10.084Z,23.70
2019-03-29T06:19:58.219Z,22.43
2019-03-29T06:22:46.356Z,23.57
2019-03-29T06:25:35.087Z,23.83
2019-03-29T06:28:29.775Z,24.77
2019-03-29T06:31:16.623Z,25.53
2019-03-29T06:34:04.755Z,21.80
2019-03-29T06:36:53.477Z,21.93
2019-03-29T06:39:41.336Z,24.43
2019-03-29T06:42:29.203Z,25.27
2019-03-29T06:45:17.225Z,20.37
2019-03-29T06:48:05.581Z,22.57
2019-03-29T06:50:54.110Z,22.87
2019-03-29T06:53:42.368Z,20.93
2019-03-29T06:56:30.408Z,19.90
2019-03-29T06:59:18.305Z,21.63
2019-03-29T07:02:06.197Z,23.27
2019-03-29T07:04:54.471Z,19.93
2019-03-29T07:07:44.535Z,22.77
2019-03-29T07:10:32.616Z,19.67
2019-03-29T07:13:20.707Z,22.60
2019-03-29T07:16:09.718Z,21.03
2019-03-29T07:18:57.551Z,22.27
2019-03-29T07:21:45.423Z,22.30
2019-03-29T07:24:33.908Z,19.37
2019-03-29T07:27:22.019Z,22.60
2019-03-29T07:30:10.406Z,22.60
2019-03-29T07:32:58.255Z,20.63
2019-03-29T07:35:46.331Z,19.53
2019-03-29T07:38:34.576Z,22.80
2019-03-29T07:41:31.630Z,37.90
2019-03-29T07:44:12.102Z,21.23
2019-03-29T07:47:00.227Z,19.63
2019-03-29T07:49:48.458Z,21.53
2019-03-29T07:52:36.221Z,20.20
2019-03-29T07:55:24.224Z,21.63
2019-03-29T07:58:11.943Z,17.20
2019-03-29T08:00:59.646Z,19.10
2019-03-29T08:03:51.231Z,21.90
2019-03-29T08:06:39.075Z,20.03
2019-03-29T08:09:27.406Z,21.83
2019-03-29T08:12:16.178Z,18.27
2019-03-29T08:15:04.785Z,19.87
2019-03-29T08:17:52.771Z,21.90
2019-03-29T08:20:44.111Z,17.67
2019-03-29T08:23:30.694Z,18.73
2019-03-29T08:26:19.048Z,18.27
2019-03-29T08:29:07.375Z,16.87
2019-03-29T08:31:55.867Z,17.50
2019-03-29T08:34:43.865Z,15.30
2019-03-29T08:37:31.997Z,17.73
2019-03-29T08:40:19.917Z,19.37
2019-03-29T08:43:08.317Z,17.17
2019-03-29T08:45:57.777Z,18.27
2019-03-29T08:48:46.647Z,17.50
2019-03-29T08:51:34.891Z,17.03
2019-03-29T08:54:23.068Z,15.87
2019-03-29T08:57:11.284Z,14.27
2019-03-29T08:59:58.939Z,13.50
2019-03-29T09:02:46.986Z,13.73
2019-03-29T09:05:35.225Z,13.30
2019-03-29T09:08:23.726Z,12.97
2019-03-29T09:11:11.603Z,13.77
2019-03-29T09:13:59.512Z,15.27
2019-03-29T09:16:47.612Z,13.90
2019-03-29T09:19:35.316Z,14.83
2019-03-29T09:22:23.053Z,14.20
2019-03-29T09:25:11.464Z,12.60
2019-03-29T09:27:59.464Z,14.50
2019-03-29T09:30:47.675Z,13.33
2019-03-29T09:33:36.011Z,10.70
2019-03-29T09:36:24.231Z,11.17
2019-03-29T09:39:12.394Z,12.03
2019-03-29T09:42:00.725Z,13.87
2019-03-29T09:44:48.918Z,15.80
2019-03-29T09:47:40.516Z,14.03
2019-03-29T09:50:27.225Z,15.33
2019-03-29T09:53:15.431Z,14.97
2019-03-29T09:56:03.455Z,11.60
2019-03-29T09:58:51.569Z,14.00
2019-03-29T10:01:39.603Z,13.03
2019-03-29T10:04:27.841Z,14.83
2019-03-29T10:07:16.311Z,14.23
2019-03-29T10:10:04.815Z,14.10
2019-03-29T10:12:52.900Z,13.93
2019-03-29T10:15:41.003Z,18.60
2019-03-29T10:18:28.861Z,13.57
2019-03-29T10:21:17.664Z,13.83
2019-03-29T10:24:05.941Z,14.87
2019-03-29T10:26:53.883Z,14.70
2019-03-29T10:29:42.252Z,13.03
2019-03-29T10:32:30.413Z,12.23
2019-03-29T10:35:18.713Z,14.30
2019-03-29T10:38:06.703Z,13.73
2019-03-29T10:40:56.133Z,16.60
2019-03-29T10:43:44.879Z,13.77
2019-03-29T10:46:33.109Z,14.47
2019-03-29T10:49:21.384Z,13.50
2019-03-29T10:52:09.844Z,13.37
2019-03-29T10:54:58.424Z,15.10
2019-03-29T10:57:46.844Z,15.33
2019-03-29T11:00:36.776Z,14.93
2019-03-29T11:03:24.655Z,14.03
2019-03-29T11:06:12.693Z,16.20
2019-03-29T11:09:00.650Z,13.80
2019-03-29T11:11:49.384Z,15.60
2019-03-29T11:14:37.843Z,12.47
2019-03-29T11:17:25.824Z,14.23
2019-03-29T11:20:14.058Z,14.70
2019-03-29T11:23:02.047Z,13.73
2019-03-29T11:25:50.276Z,13.83
2019-03-29T11:28:38.391Z,15.27
2019-03-29T11:31:27.214Z,14.50
2019-03-29T11:34:15.354Z,14.73
2019-03-29T11:37:03.738Z,14.57
2019-03-29T11:39:51.908Z,14.67
2019-03-29T11:42:39.660Z,14.13
2019-03-29T11:45:27.430Z,14.73
2019-03-29T11:48:15.615Z,14.70
2019-03-29T11:51:03.508Z,15.43
2019-03-29T11:53:51.559Z,14.23
2019-03-29T11:56:39.534Z,14.27
2019-03-29T11:59:28.019Z,15.80
2019-03-29T12:02:30.136Z,13.90
2019-03-29T12:05:08.419Z,16.47
2019-03-29T12:07:56.360Z,15.07
2019-03-29T12:10:44.729Z,17.57
2019-03-29T12:13:40.838Z,17.40
2019-03-29T12:16:23.307Z,16.17
2019-03-29T12:19:11.170Z,16.47
2019-03-29T12:21:59.206Z,15.43
2019-03-29T12:24:47.371Z,14.83
2019-03-29T12:27:35.540Z,14.10
2019-03-29T12:30:31.692Z,17.13
2019-03-29T12:33:13.577Z,16.77
2019-03-29T12:36:01.707Z,16.20
2019-03-29T12:38:49.981Z,15.70
2019-03-29T12:41:37.835Z,15.07
2019-03-29T12:44:25.648Z,16.37
2019-03-29T12:47:13.664Z,17.03
2019-03-29T12:50:01.682Z,15.37
2019-03-29T12:52:50.319Z,17.60
2019-03-29T12:55:39.277Z,14.00
2019-03-29T12:58:26.999Z,14.30
2019-03-29T13:01:14.975Z,14.03
2019-03-29T13:04:02.989Z,14.77
2019-03-29T13:06:50.609Z,15.83
2019-03-29T13:09:39.913Z,17.90
2019-03-29T13:12:27.842Z,16.03
2019-03-29T13:15:15.601Z,17.80
2019-03-29T13:18:03.682Z,15.83
2019-03-29T13:20:51.654Z,17.07
2019-03-29T13:23:39.718Z,18.00
2019-03-29T13:26:28.240Z,19.30
2019-03-29T13:29:16.281Z,17.53
2019-03-29T13:32:04.004Z,15.83
2019-03-29T13:34:52.261Z,19.73
2019-03-29T13:37:40.267Z,16.97
2019-03-29T13:40:28.725Z,17.47
2019-03-29T13:43:16.926Z,18.87
2019-03-29T13:46:05.007Z,17.57
2019-03-29T13:48:52.977Z,14.27
2019-03-29T13:51:41.036Z,18.67
2019-03-29T13:54:29.073Z,14.67
2019-03-29T13:57:17.402Z,14.57
2019-03-29T14:00:09.010Z,17.90
2019-03-29T14:02:57.035Z,15.43
2019-03-29T14:05:45.522Z,17.83
2019-03-29T14:08:33.466Z,18.37
2019-03-29T14:11:21.493Z,18.47
2019-03-29T14:14:10.881Z,16.37
2019-03-29T14:16:59.047Z,16.17
2019-03-29T14:19:47.615Z,18.70
2019-03-29T14:22:36.070Z,16.23
2019-03-29T14:25:23.821Z,20.73
2019-03-29T14:28:11.745Z,16.50
2019-03-29T14:30:59.751Z,16.60
2019-03-29T14:33:47.706Z,21.00
2019-03-29T14:36:35.299Z,17.63
2019-03-29T14:39:23.526Z,20.07
2019-03-29T14:42:12.833Z,14.93
2019-03-29T14:45:01.366Z,17.53
2019-03-29T14:47:49.539Z,18.47
2019-03-29T14:50:37.658Z,16.33
2019-03-29T14:53:25.560Z,14.53
2019-03-29T14:56:13.314Z,21.13
2019-03-29T14:59:01.705Z,17.43
2019-03-29T15:01:50.530Z,13.27
2019-03-29T15:04:38.633Z,15.87
2019-03-29T15:07:26.663Z,17.53
2019-03-29T15:10:26.144Z,19.17
2019-03-29T15:13:14.859Z,15.23
2019-03-29T15:16:02.433Z,15.30
2019-03-29T15:18:50.380Z,17.23
2019-03-29T15:21:38.714Z,18.70
2019-03-29T15:24:27.257Z,15.07
2019-03-29T15:27:15.405Z,16.50
2019-03-29T15:30:03.925Z,15.37
2019-03-29T15:32:52.246Z,16.23
2019-03-29T15:35:40.372Z,17.30
2019-03-29T15:38:28.546Z,13.90
2019-03-29T15:41:16.545Z,16.47
2019-03-29T15:44:04.877Z,16.00
2019-03-29T15:46:52.497Z,16.60
2019-03-29T15:49:40.821Z,20.87
2019-03-29T15:52:28.718Z,21.13
2019-03-29T15:55:16.801Z,16.00
2019-03-29T15:58:05.046Z,15.83
2019-03-29T16:00:53.074Z,15.90
2019-03-29T16:03:41.147Z,16.70
2019-03-29T16:06:29.388Z,15.17
2019-03-29T16:09:17.332Z,16.43
2019-03-29T16:12:05.556Z,17.60
2019-03-29T16:14:53.645Z,16.53
2019-03-29T16:17:41.534Z,15.23
2019-03-29T16:20:29.613Z,16.80
2019-03-29T16:23:17.666Z,14.80
2019-03-29T16:26:05.654Z,18.03
2019-03-29T16:28:53.529Z,17.37
2019-03-29T16:31:41.514Z,16.50
2019-03-29T16:34:30.002Z,18.40
2019-03-29T16:37:18.527Z,14.50
2019-03-29T16:40:06.691Z,15.57
2019-03-29T16:42:54.642Z,18.17
2019-03-29T16:45:48.040Z,14.97
2019-03-29T16:48:32.486Z,16.83
2019-03-29T16:51:20.351Z,14.53
2019-03-29T16:54:08.606Z,11.50
2019-03-29T16:56:56.923Z,16.23
2019-03-29T16:59:45.177Z,17.93
2019-03-29T17:02:33.308Z,14.30
2019-03-29T17:05:21.489Z,17.20
2019-03-29T17:08:09.687Z,17.57
2019-03-29T17:10:57.769Z,12.87
2019-03-29T17:13:45.985Z,18.43
2019-03-29T17:16:34.072Z,13.57
2019-03-29T17:19:21.683Z,12.77
2019-03-29T17:22:09.633Z,16.70
2019-03-29T17:24:57.939Z,17.93
2019-03-29T17:27:45.772Z,17.17
2019-03-29T17:30:42.102Z,15.17
2019-03-29T17:33:30.347Z,15.53
2019-03-29T17:36:18.637Z,14.60
2019-03-29T17:39:08.110Z,16.80
2019-03-29T17:41:56.151Z,17.10
2019-03-29T17:44:44.605Z,20.00
2019-03-29T17:47:33.021Z,18.93
2019-03-29T17:50:21.510Z,16.53
2019-03-29T17:53:10.196Z,15.93
2019-03-29T17:55:58.405Z,17.43
2019-03-29T17:58:46.662Z,18.23
2019-03-29T18:01:34.765Z,17.73
2019-03-29T18:04:23.636Z,17.17
2019-03-29T18:07:11.577Z,16.63
2019-03-29T18:10:00.842Z,15.00
2019-03-29T18:12:48.838Z,17.40
2019-03-29T18:15:44.468Z,19.27
2019-03-29T18:18:32.726Z,20.77
2019-03-29T18:21:20.782Z,17.13
2019-03-29T18:24:08.683Z,20.90
2019-03-29T18:26:56.697Z,19.20
2019-03-29T18:29:44.583Z,18.13
2019-03-29T18:32:32.943Z,20.30
2019-03-29T18:35:21.245Z,18.87
2019-03-29T18:38:09.857Z,18.47
2019-03-29T18:40:57.879Z,19.73
2019-03-29T18:43:46.117Z,17.50
2019-03-29T18:46:44.535Z,21.50
2019-03-29T18:49:23.685Z,20.57
2019-03-29T18:52:11.513Z,18.83
2019-03-29T18:54:59.445Z,21.57
2019-03-29T18:57:47.441Z,22.23
2019-03-29T19:00:36.383Z,17.97
2019-03-29T19:03:24.227Z,19.63
2019-03-29T19:06:13.067Z,20.67
2019-03-29T19:09:01.381Z,16.50
2019-03-29T19:11:49.767Z,18.60
2019-03-29T19:14:37.454Z,19.10
2019-03-29T19:17:25.711Z,20.53
2019-03-29T19:20:26.687Z,17.63
2019-03-29T19:23:04.250Z,19.40
2019-03-29T19:25:52.237Z,19.30
2019-03-29T19:28:40.424Z,18.77
2019-03-29T19:31:29.121Z,21.07
2019-03-29T19:34:17.285Z,22.23
2019-03-29T19:37:05.394Z,17.83
2019-03-29T19:39:53.491Z,21.00
2019-03-29T19:42:41.727Z,16.67
2019-03-29T19:45:30.191Z,20.93
2019-03-29T19:48:18.224Z,19.63
2019-03-29T19:51:05.835Z,20.03
2019-03-29T19:54:06.697Z,18.13
2019-03-29T19:56:43.737Z,18.10
2019-03-29T19:59:31.594Z,17.17
2019-03-29T20:02:19.454Z,16.30
2019-03-29T20:05:13.351Z,17.33
2019-03-29T20:08:01.922Z,14.47
2019-03-29T20:10:49.982Z,16.03
2019-03-29T20:13:37.666Z,15.20
2019-03-29T20:16:25.354Z,16.10
2019-03-29T20:19:13.231Z,16.20
2019-03-29T20:22:01.641Z,11.97
2019-03-29T20:24:50.344Z,18.03
2019-03-29T20:27:38.068Z,18.13
2019-03-29T20:30:26.568Z,16.13
2019-03-29T20:33:14.716Z,19.90
2019-03-29T20:36:02.696Z,17.40
2019-03-29T20:38:50.635Z,17.87
2019-03-29T20:41:38.873Z,18.20
2019-03-29T20:44:26.936Z,20.47
2019-03-29T20:47:14.822Z,15.50
2019-03-29T20:50:02.817Z,15.70
2019-03-29T20:52:51.081Z,18.87
2019-03-29T20:55:39.455Z,15.90
2019-03-29T20:58:27.421Z,16.83
2019-03-29T21:01:15.575Z,15.53
2019-03-29T21:04:03.675Z,16.97
2019-03-29T21:06:51.687Z,20.00
2019-03-29T21:09:39.698Z,17.73
2019-03-29T21:12:27.591Z,18.13
2019-03-29T21:15:15.612Z,19.17
2019-03-29T21:18:03.511Z,18.97
2019-03-29T21:20:51.756Z,20.20
2019-03-29T21:23:39.406Z,19.20
2019-03-29T21:26:27.631Z,18.73
2019-03-29T21:29:16.012Z,17.67
2019-03-29T21:32:04.056Z,18.27
2019-03-29T21:34:51.971Z,19.77
2019-03-29T21:37:39.898Z,21.33
2019-03-29T21:40:27.857Z,17.67
2019-03-29T21:43:17.865Z,18.37
2019-03-29T21:46:06.009Z,16.63
2019-03-29T21:48:54.074Z,19.93
2019-03-29T21:51:41.879Z,18.43
2019-03-29T21:54:30.537Z,18.43
2019-03-29T21:57:19.284Z,19.77
2019-03-29T22:00:08.936Z,22.50
2019-03-29T22:02:59.856Z,16.50
2019-03-29T22:05:48.038Z,22.53
2019-03-29T22:08:36.690Z,19.53
2019-03-29T22:11:25.337Z,21.73
2019-03-29T22:14:13.207Z,21.30
2019-03-29T22:17:01.104Z,18.43
2019-03-29T22:19:48.907Z,19.97
2019-03-29T22:22:38.221Z,16.80
2019-03-29T22:25:26.558Z,21.10
2019-03-29T22:28:15.438Z,20.33
2019-03-29T22:31:03.556Z,19.20
2019-03-29T22:33:51.834Z,18.03
2019-03-29T22:36:40.286Z,19.43
2019-03-29T22:39:28.530Z,18.63
2019-03-29T22:42:16.399Z,21.80
2019-03-29T22:45:04.726Z,20.17
2019-03-29T22:47:52.599Z,20.37
2019-03-29T22:50:40.902Z,19.30
2019-03-29T22:53:36.395Z,20.40
2019-03-29T22:56:24.569Z,20.50
2019-03-29T22:59:19.435Z,21.13
2019-03-29T23:02:11.184Z,19.97
2019-03-29T23:05:04.230Z,20.23
2019-03-29T23:07:52.344Z,22.43
2019-03-29T23:10:40.302Z,19.33
2019-03-29T23:13:28.229Z,20.33
2019-03-29T23:16:16.538Z,22.27
2019-03-29T23:19:06.822Z,20.90
2019-03-29T23:21:54.304Z,20.07
2019-03-29T23:24:42.535Z,23.73
2019-03-29T23:27:30.102Z,20.77
2019-03-29T23:30:18.684Z,20.70
2019-03-29T23:33:06.903Z,19.60
2019-03-29T23:35:54.766Z,25.00
2019-03-29T23:38:42.835Z,22.57
2019-03-29T23:41:31.081Z,20.47
2019-03-29T23:44:19.182Z,21.10
2019-03-29T23:47:07.174Z,20.77
2019-03-29T23:49:55.402Z,19.03
2019-03-29T23:52:43.498Z,19.63
2019-03-29T23:55:31.707Z,20.80
2019-03-29T23:58:19.921Z,21.83
